sensor_id;sensor_type;location;lat;lon;timestamp;pressure;altitude;pressure_sealevel;temperature;humidity
61786;BME280;47692;53.714;11.372;2023-10-13T00:00:09;101009.63;;;9.92;100.00
61786;BME280;47692;53.714;11.372;2023-10-13T00:02:51;101010.53;;;9.92;100.00
61786;BME280;47692;53.714;11.372;2023-10-13T00:05:18;101007.84;;;9.95;100.00
61786;BME280;47692;53.714;11.372;2023-10-13T00:07:43;101001.78;;;9.93;100.00
61786;BME280;47692;53.714;11.372;2023-10-13T00:10:09;101013.03;;;9.98;100.00
61786;BME280;47692;53.714;11.372;2023-10-13T00:12:35;101007.72;;;10.03;100.00
61786;BME280;47692;53.714;11.372;2023-10-13T00:15:04;101004.25;;;10.02;100.00
61786;BME280;47692;53.714;11.372;2023-10-13T00:17:30;100998.09;;;10.07;100.00
61786;BME280;47692;53.714;11.372;2023-10-13T00:19:57;100991.09;;;10.10;100.00
61786;BME280;47692;53.714;11.372;2023-10-13T00:22:25;100991.91;;;10.14;100.00
61786;BME280;47692;53.714;11.372;2023-10-13T00:24:56;100985.81;;;10.15;100.00
61786;BME280;47692;53.714;11.372;2023-10-13T00:27:24;100983.97;;;10.20;100.00
61786;BME280;47692;53.714;11.372;2023-10-13T00:29:59;100984.75;;;10.25;100.00
61786;BME280;47692;53.714;11.372;2023-10-13T00:32:43;100990.69;;;10.35;100.00
61786;BME280;47692;53.714;11.372;2023-10-13T00:35:11;100975.88;;;10.35;100.00
61786;BME280;47692;53.714;11.372;2023-10-13T00:37:56;100976.00;;;10.29;100.00
61786;BME280;47692;53.714;11.372;2023-10-13T00:40:23;100971.53;;;10.38;100.00
61786;BME280;47692;53.714;11.372;2023-10-13T00:42:55;100961.03;;;10.41;100.00
61786;BME280;47692;53.714;11.372;2023-10-13T00:45:30;100956.53;;;10.49;100.00
61786;BME280;47692;53.714;11.372;2023-10-13T00:48:00;100961.88;;;10.41;100.00
61786;BME280;47692;53.714;11.372;2023-10-13T00:50:27;100958.44;;;10.39;100.00
61786;BME280;47692;53.714;11.372;2023-10-13T00:52:53;100960.13;;;10.42;100.00
61786;BME280;47692;53.714;11.372;2023-10-13T00:55:21;100950.53;;;10.44;100.00
61786;BME280;47692;53.714;11.372;2023-10-13T00:57:53;100958.31;;;10.47;100.00
61786;BME280;47692;53.714;11.372;2023-10-13T01:00:19;100948.75;;;10.46;100.00
61786;BME280;47692;53.714;11.372;2023-10-13T01:02:49;100950.41;;;10.50;100.00
61786;BME280;47692;53.714;11.372;2023-10-13T01:05:22;100940.75;;;10.55;100.00
61786;BME280;47692;53.714;11.372;2023-10-13T01:07:49;100941.69;;;10.51;100.00
61786;BME280;47692;53.714;11.372;2023-10-13T01:10:19;100941.63;;;10.54;100.00
61786;BME280;47692;53.714;11.372;2023-10-13T01:12:46;100944.31;;;10.51;100.00
61786;BME280;47692;53.714;11.372;2023-10-13T01:15:12;100945.03;;;10.59;100.00
61786;BME280;47692;53.714;11.372;2023-10-13T01:17:42;100945.88;;;10.60;100.00
61786;BME280;47692;53.714;11.372;2023-10-13T01:20:11;100934.53;;;10.62;100.00
61786;BME280;47692;53.714;11.372;2023-10-13T01:22:45;100934.53;;;10.62;100.00
61786;BME280;47692;53.714;11.372;2023-10-13T01:25:15;100936.25;;;10.63;100.00
61786;BME280;47692;53.714;11.372;2023-10-13T01:27:44;100922.44;;;10.58;100.00
61786;BME280;47692;53.714;11.372;2023-10-13T01:30:14;100915.53;;;10.54;100.00
61786;BME280;47692;53.714;11.372;2023-10-13T01:32:49;100925.75;;;10.65;100.00
61786;BME280;47692;53.714;11.372;2023-10-13T01:35:16;100913.56;;;10.67;100.00
61786;BME280;47692;53.714;11.372;2023-10-13T01:37:44;100915.28;;;10.66;100.00
61786;BME280;47692;53.714;11.372;2023-10-13T01:40:10;100911.84;;;10.64;100.00
61786;BME280;47692;53.714;11.372;2023-10-13T01:42:36;100912.66;;;10.66;100.00
61786;BME280;47692;53.714;11.372;2023-10-13T01:45:02;100910.84;;;10.70;100.00
61786;BME280;47692;53.714;11.372;2023-10-13T01:47:32;100910.00;;;10.70;100.00
61786;BME280;47692;53.714;11.372;2023-10-13T01:50:01;100907.28;;;10.76;100.00
61786;BME280;47692;53.714;11.372;2023-10-13T01:52:39;100902.84;;;10.79;100.00
61786;BME280;47692;53.714;11.372;2023-10-13T01:55:07;100889.72;;;10.82;100.00
61786;BME280;47692;53.714;11.372;2023-10-13T01:57:35;100880.06;;;10.86;100.00
61786;BME280;47692;53.714;11.372;2023-10-13T02:00:01;100887.06;;;10.84;100.00
61786;BME280;47692;53.714;11.372;2023-10-13T02:02:36;100874.00;;;10.84;100.00
61786;BME280;47692;53.714;11.372;2023-10-13T02:05:09;100867.84;;;10.88;100.00
61786;BME280;47692;53.714;11.372;2023-10-13T02:07:35;100866.91;;;10.91;100.00
61786;BME280;47692;53.714;11.372;2023-10-13T02:10:04;100862.50;;;10.94;100.00
61786;BME280;47692;53.714;11.372;2023-10-13T02:12:31;100869.44;;;10.95;100.00
61786;BME280;47692;53.714;11.372;2023-10-13T02:15:09;100865.91;;;10.96;100.00
61786;BME280;47692;53.714;11.372;2023-10-13T02:17:38;100856.34;;;10.97;100.00
61786;BME280;47692;53.714;11.372;2023-10-13T02:20:10;100841.50;;;10.97;100.00
61786;BME280;47692;53.714;11.372;2023-10-13T02:22:40;100850.09;;;11.03;100.00
61786;BME280;47692;53.714;11.372;2023-10-13T02:25:15;100843.19;;;11.02;100.00
61786;BME280;47692;53.714;11.372;2023-10-13T02:28:00;100838.84;;;11.01;100.00
61786;BME280;47692;53.714;11.372;2023-10-13T02:30:25;100836.28;;;10.99;100.00
61786;BME280;47692;53.714;11.372;2023-10-13T02:32:50;100831.88;;;10.99;100.00
61786;BME280;47692;53.714;11.372;2023-10-13T02:35:18;100821.41;;;11.01;100.00
61786;BME280;47692;53.714;11.372;2023-10-13T02:37:45;100819.69;;;11.00;100.00
61786;BME280;47692;53.714;11.372;2023-10-13T02:40:19;100805.88;;;10.95;100.00
61786;BME280;47692;53.714;11.372;2023-10-13T02:42:48;100804.88;;;11.01;100.00
61786;BME280;47692;53.714;11.372;2023-10-13T02:45:14;100801.38;;;11.00;100.00
61786;BME280;47692;53.714;11.372;2023-10-13T02:47:40;100799.72;;;10.97;100.00
61786;BME280;47692;53.714;11.372;2023-10-13T02:50:08;100788.38;;;10.98;100.00
61786;BME280;47692;53.714;11.372;2023-10-13T02:52:37;100790.16;;;10.96;100.00
61786;BME280;47692;53.714;11.372;2023-10-13T02:55:10;100784.91;;;10.98;100.00
61786;BME280;47692;53.714;11.372;2023-10-13T02:57:39;100778.75;;;11.01;100.00
61786;BME280;47692;53.714;11.372;2023-10-13T03:00:06;100766.59;;;10.99;100.00
61786;BME280;47692;53.714;11.372;2023-10-13T03:02:38;100758.75;;;10.99;100.00
61786;BME280;47692;53.714;11.372;2023-10-13T03:05:10;100767.25;;;11.08;100.00
61786;BME280;47692;53.714;11.372;2023-10-13T03:07:41;100769.09;;;11.04;100.00
61786;BME280;47692;53.714;11.372;2023-10-13T03:10:10;100762.94;;;11.07;100.00
61786;BME280;47692;53.714;11.372;2023-10-13T03:12:39;100751.59;;;11.08;100.00
61786;BME280;47692;53.714;11.372;2023-10-13T03:15:06;100753.28;;;11.09;100.00
61786;BME280;47692;53.714;11.372;2023-10-13T03:17:47;100757.63;;;11.10;100.00
61786;BME280;47692;53.714;11.372;2023-10-13T03:20:15;100740.16;;;11.12;100.00
61786;BME280;47692;53.714;11.372;2023-10-13T03:22:45;100752.28;;;11.14;100.00
61786;BME280;47692;53.714;11.372;2023-10-13T03:25:14;100746.22;;;11.12;100.00
61786;BME280;47692;53.714;11.372;2023-10-13T03:27:58;100738.28;;;11.17;100.00
61786;BME280;47692;53.714;11.372;2023-10-13T03:30:24;100737.44;;;11.17;100.00
61786;BME280;47692;53.714;11.372;2023-10-13T03:32:59;100733.91;;;11.18;100.00
61786;BME280;47692;53.714;11.372;2023-10-13T03:35:26;100727.03;;;11.13;100.00
61786;BME280;47692;53.714;11.372;2023-10-13T03:38:03;100727.78;;;11.20;100.00
61786;BME280;47692;53.714;11.372;2023-10-13T03:40:29;100731.28;;;11.18;100.00
61786;BME280;47692;53.714;11.372;2023-10-13T03:42:56;100725.16;;;11.20;100.00
61786;BME280;47692;53.714;11.372;2023-10-13T03:45:39;100723.28;;;11.24;100.00
61786;BME280;47692;53.714;11.372;2023-10-13T03:48:06;100714.56;;;11.26;100.00
61786;BME280;47692;53.714;11.372;2023-10-13T03:50:38;100715.34;;;11.28;100.00
61786;BME280;47692;53.714;11.372;2023-10-13T03:53:23;100704.81;;;11.31;100.00
61786;BME280;47692;53.714;11.372;2023-10-13T03:55:51;100703.94;;;11.31;100.00
61786;BME280;47692;53.714;11.372;2023-10-13T03:58:36;100704.81;;;11.31;100.00
61786;BME280;47692;53.714;11.372;2023-10-13T04:01:04;100696.81;;;11.38;100.00
61786;BME280;47692;53.714;11.372;2023-10-13T04:03:31;100696.63;;;11.45;100.00
61786;BME280;47692;53.714;11.372;2023-10-13T04:06:01;100691.44;;;11.44;100.00
61786;BME280;47692;53.714;11.372;2023-10-13T04:08:33;100687.00;;;11.46;100.00
61786;BME280;47692;53.714;11.372;2023-10-13T04:11:08;100683.44;;;11.50;100.00
61786;BME280;47692;53.714;11.372;2023-10-13T04:13:52;100680.00;;;11.48;100.00
61786;BME280;47692;53.714;11.372;2023-10-13T04:16:36;100675.50;;;11.53;100.00
61786;BME280;47692;53.714;11.372;2023-10-13T04:19:03;100671.09;;;11.55;100.00
61786;BME280;47692;53.714;11.372;2023-10-13T04:21:28;100660.63;;;11.55;100.00
61786;BME280;47692;53.714;11.372;2023-10-13T04:24:09;100649.28;;;11.56;100.00
61786;BME280;47692;53.714;11.372;2023-10-13T04:26:49;100653.50;;;11.60;100.00
61786;BME280;47692;53.714;11.372;2023-10-13T04:29:33;100650.72;;;11.67;100.00
61786;BME280;47692;53.714;11.372;2023-10-13T04:32:14;100643.78;;;11.66;100.00
61786;BME280;47692;53.714;11.372;2023-10-13T04:34:44;100648.06;;;11.68;100.00
61786;BME280;47692;53.714;11.372;2023-10-13T04:37:12;100636.75;;;11.66;100.00
61786;BME280;47692;53.714;11.372;2023-10-13T04:39:58;100628.00;;;11.69;100.00
61786;BME280;47692;53.714;11.372;2023-10-13T04:42:36;100637.38;;;11.76;100.00
61786;BME280;47692;53.714;11.372;2023-10-13T04:45:07;100627.00;;;11.73;100.00
61786;BME280;47692;53.714;11.372;2023-10-13T04:47:53;100632.88;;;11.81;100.00
61786;BME280;47692;53.714;11.372;2023-10-13T04:50:22;100637.28;;;11.79;100.00
61786;BME280;47692;53.714;11.372;2023-10-13T04:52:52;100630.25;;;11.81;100.00
61786;BME280;47692;53.714;11.372;2023-10-13T04:55:27;100621.47;;;11.84;100.00
61786;BME280;47692;53.714;11.372;2023-10-13T04:58:13;100611.78;;;11.86;100.00
61786;BME280;47692;53.714;11.372;2023-10-13T05:01:02;100605.59;;;11.90;100.00
61786;BME280;47692;53.714;11.372;2023-10-13T05:03:46;100596.06;;;11.87;100.00
61786;BME280;47692;53.714;11.372;2023-10-13T05:06:30;100588.84;;;11.95;100.00
61786;BME280;47692;53.714;11.372;2023-10-13T05:09:07;100580.94;;;11.99;100.00
61786;BME280;47692;53.714;11.372;2023-10-13T05:11:51;100580.81;;;12.02;100.00
61786;BME280;47692;53.714;11.372;2023-10-13T05:14:35;100579.97;;;12.01;100.00
61786;BME280;47692;53.714;11.372;2023-10-13T05:17:19;100565.06;;;12.05;100.00
61786;BME280;47692;53.714;11.372;2023-10-13T05:20:03;100565.69;;;12.11;100.00
61786;BME280;47692;53.714;11.372;2023-10-13T05:22:48;100566.53;;;12.14;100.00
61786;BME280;47692;53.714;11.372;2023-10-13T05:25:35;100556.84;;;12.16;100.00
61786;BME280;47692;53.714;11.372;2023-10-13T05:28:19;100561.31;;;12.12;100.00
61786;BME280;47692;53.714;11.372;2023-10-13T05:31:03;100551.78;;;12.11;100.00
61786;BME280;47692;53.714;11.372;2023-10-13T05:33:47;100554.19;;;12.17;100.00
61786;BME280;47692;53.714;11.372;2023-10-13T05:36:31;100546.16;;;12.22;100.00
61786;BME280;47692;53.714;11.372;2023-10-13T05:39:15;100546.16;;;12.23;100.00
61786;BME280;47692;53.714;11.372;2023-10-13T05:41:58;100538.19;;;12.26;100.00
61786;BME280;47692;53.714;11.372;2023-10-13T05:44:42;100536.38;;;12.28;100.00
61786;BME280;47692;53.714;11.372;2023-10-13T05:47:26;100542.38;;;12.32;100.00
61786;BME280;47692;53.714;11.372;2023-10-13T05:50:08;100537.13;;;12.32;100.00
61786;BME280;47692;53.714;11.372;2023-10-13T05:52:46;100535.28;;;12.36;100.00
61786;BME280;47692;53.714;11.372;2023-10-13T05:55:29;100525.50;;;12.41;100.00
61786;BME280;47692;53.714;11.372;2023-10-13T05:58:13;100535.03;;;12.42;100.00
61786;BME280;47692;53.714;11.372;2023-10-13T06:00:57;100771.31;;;12.50;100.00
61786;BME280;47692;53.714;11.372;2023-10-13T06:03:41;100587.81;;;12.56;100.00
61786;BME280;47692;53.714;11.372;2023-10-13T06:06:25;100560.66;;;12.59;100.00
61786;BME280;47692;53.714;11.372;2023-10-13T06:09:09;100558.81;;;12.63;100.00
61786;BME280;47692;53.714;11.372;2023-10-13T06:11:53;100557.00;;;12.65;100.00
61786;BME280;47692;53.714;11.372;2023-10-13T06:14:37;100561.22;;;12.69;100.00
61786;BME280;47692;53.714;11.372;2023-10-13T06:17:22;100546.25;;;12.72;100.00
61786;BME280;47692;53.714;11.372;2023-10-13T06:20:06;100542.63;;;12.76;100.00
61786;BME280;47692;53.714;11.372;2023-10-13T06:22:50;100543.28;;;12.83;100.00
61786;BME280;47692;53.714;11.372;2023-10-13T06:25:34;100539.69;;;12.86;100.00
61786;BME280;47692;53.714;11.372;2023-10-13T06:28:18;100532.50;;;12.91;100.00
61786;BME280;47692;53.714;11.372;2023-10-13T06:31:04;100537.59;;;12.96;100.00
61786;BME280;47692;53.714;11.372;2023-10-13T06:33:34;100532.16;;;13.02;100.00
61786;BME280;47692;53.714;11.372;2023-10-13T06:36:03;100523.13;;;13.09;100.00
61786;BME280;47692;53.714;11.372;2023-10-13T06:38:37;100529.97;;;13.13;100.00
61786;BME280;47692;53.714;11.372;2023-10-13T06:41:03;100529.84;;;13.16;100.00
61786;BME280;47692;53.714;11.372;2023-10-13T06:43:36;100525.28;;;13.21;100.00
61786;BME280;47692;53.714;11.372;2023-10-13T06:46:06;100525.28;;;13.21;100.00
61786;BME280;47692;53.714;11.372;2023-10-13T06:48:32;100522.44;;;13.28;100.00
61786;BME280;47692;53.714;11.372;2023-10-13T06:51:01;100529.19;;;13.35;100.00
61786;BME280;47692;53.714;11.372;2023-10-13T06:53:37;100536.13;;;13.36;100.00
61786;BME280;47692;53.714;11.372;2023-10-13T06:56:06;100532.41;;;13.43;100.00
61786;BME280;47692;53.714;11.372;2023-10-13T06:58:31;100522.66;;;13.47;100.00
61786;BME280;47692;53.714;11.372;2023-10-13T07:00:57;100518.09;;;13.52;100.00
61786;BME280;47692;53.714;11.372;2023-10-13T07:03:27;100518.03;;;13.53;100.00
61786;BME280;47692;53.714;11.372;2023-10-13T07:05:52;100525.72;;;13.58;100.00
61786;BME280;47692;53.714;11.372;2023-10-13T07:08:19;100514.13;;;13.64;100.00
61786;BME280;47692;53.714;11.372;2023-10-13T07:10:53;100512.44;;;13.63;100.00
61786;BME280;47692;53.714;11.372;2023-10-13T07:13:33;100509.75;;;13.64;100.00
61786;BME280;47692;53.714;11.372;2023-10-13T07:16:07;100513.88;;;13.70;100.00
61786;BME280;47692;53.714;11.372;2023-10-13T07:18:37;100503.06;;;13.79;100.00
61786;BME280;47692;53.714;11.372;2023-10-13T07:21:10;100510.78;;;13.82;100.00
61786;BME280;47692;53.714;11.372;2023-10-13T07:23:36;100507.06;;;13.88;100.00
61786;BME280;47692;53.714;11.372;2023-10-13T07:26:02;100505.25;;;13.90;100.00
61786;BME280;47692;53.714;11.372;2023-10-13T07:28:32;100499.88;;;13.93;100.00
61786;BME280;47692;53.714;11.372;2023-10-13T07:31:02;100499.75;;;13.96;100.00
61786;BME280;47692;53.714;11.372;2023-10-13T07:33:28;100497.88;;;14.00;100.00
61786;BME280;47692;53.714;11.372;2023-10-13T07:36:04;100496.69;;;14.07;100.00
61786;BME280;47692;53.714;11.372;2023-10-13T07:38:45;100498.28;;;14.11;100.00
61786;BME280;47692;53.714;11.372;2023-10-13T07:41:34;100487.53;;;14.17;100.00
61786;BME280;47692;53.714;11.372;2023-10-13T07:44:01;100483.78;;;14.23;100.00
61786;BME280;47692;53.714;11.372;2023-10-13T07:46:30;100481.16;;;14.23;100.00
61786;BME280;47692;53.714;11.372;2023-10-13T07:48:58;100469.66;;;14.26;100.00
61786;BME280;47692;53.714;11.372;2023-10-13T07:51:38;100459.03;;;14.29;100.00
61786;BME280;47692;53.714;11.372;2023-10-13T07:54:12;100458.06;;;14.31;100.00
61786;BME280;47692;53.714;11.372;2023-10-13T07:56:40;100454.56;;;14.31;100.00
61786;BME280;47692;53.714;11.372;2023-10-13T07:59:06;100444.75;;;14.36;100.00
61786;BME280;47692;53.714;11.372;2023-10-13T08:01:34;100449.00;;;14.38;100.00
61786;BME280;47692;53.714;11.372;2023-10-13T08:04:00;100448.94;;;14.40;100.00
61786;BME280;47692;53.714;11.372;2023-10-13T08:06:38;100436.63;;;14.41;100.00
61786;BME280;47692;53.714;11.372;2023-10-13T08:09:06;100425.22;;;14.42;100.00
61786;BME280;47692;53.714;11.372;2023-10-13T08:11:33;100430.53;;;14.40;100.00
61786;BME280;47692;53.714;11.372;2023-10-13T08:14:05;100430.53;;;14.40;100.00
61786;BME280;47692;53.714;11.372;2023-10-13T08:16:39;100422.53;;;14.43;100.00
61786;BME280;47692;53.714;11.372;2023-10-13T08:19:22;100407.63;;;14.44;100.00
61786;BME280;47692;53.714;11.372;2023-10-13T08:22:02;100407.56;;;14.45;100.00
61786;BME280;47692;53.714;11.372;2023-10-13T08:24:50;100402.19;;;14.48;100.00
61786;BME280;47692;53.714;11.372;2023-10-13T08:27:19;100391.69;;;14.48;100.00
61786;BME280;47692;53.714;11.372;2023-10-13T08:30:02;100385.28;;;14.54;100.00
61786;BME280;47692;53.714;11.372;2023-10-13T08:32:47;100385.22;;;14.55;100.00
61786;BME280;47692;53.714;11.372;2023-10-13T08:35:25;100369.31;;;14.59;100.00
61786;BME280;47692;53.714;11.372;2023-10-13T08:38:02;100363.00;;;14.63;100.00
61786;BME280;47692;53.714;11.372;2023-10-13T08:40:30;100344.69;;;14.61;100.00
61786;BME280;47692;53.714;11.372;2023-10-13T08:43:11;100356.94;;;14.61;100.00
61786;BME280;47692;53.714;11.372;2023-10-13T08:45:40;100350.94;;;14.59;100.00
61786;BME280;47692;53.714;11.372;2023-10-13T08:48:13;100332.34;;;14.63;100.00
61786;BME280;47692;53.714;11.372;2023-10-13T08:50:49;100329.66;;;14.65;100.00
61786;BME280;47692;53.714;11.372;2023-10-13T08:53:25;100317.28;;;14.67;100.00
61786;BME280;47692;53.714;11.372;2023-10-13T08:56:00;100322.56;;;14.67;100.00
61786;BME280;47692;53.714;11.372;2023-10-13T08:58:38;100319.00;;;14.68;100.00
61786;BME280;47692;53.714;11.372;2023-10-13T09:01:26;100325.13;;;14.68;100.00
61786;BME280;47692;53.714;11.372;2023-10-13T09:04:17;100317.00;;;14.73;100.00
61786;BME280;47692;53.714;11.372;2023-10-13T09:06:48;100310.06;;;14.72;100.00
61786;BME280;47692;53.714;11.372;2023-10-13T09:12:13;100318.88;;;14.71;100.00
61786;BME280;47692;53.714;11.372;2023-10-13T09:14:43;100298.78;;;14.70;100.00
61786;BME280;47692;53.714;11.372;2023-10-13T09:17:10;100298.63;;;14.73;100.00
61786;BME280;47692;53.714;11.372;2023-10-13T09:19:51;100302.81;;;14.77;100.00
61786;BME280;47692;53.714;11.372;2023-10-13T09:22:27;100299.28;;;14.78;100.00
61786;BME280;47692;53.714;11.372;2023-10-13T09:24:58;100292.16;;;14.80;100.00
61786;BME280;47692;53.714;11.372;2023-10-13T09:27:25;100285.19;;;14.79;100.00
61786;BME280;47692;53.714;11.372;2023-10-13T09:30:02;100297.41;;;14.80;100.00
61786;BME280;47692;53.714;11.372;2023-10-13T09:33:02;100290.31;;;14.82;100.00
61786;BME280;47692;53.714;11.372;2023-10-13T09:35:28;100292.16;;;14.80;100.00
61786;BME280;47692;53.714;11.372;2023-10-13T09:37:58;100285.16;;;14.81;100.00
61786;BME280;47692;53.714;11.372;2023-10-13T09:40:23;100286.91;;;14.80;100.00
61786;BME280;47692;53.714;11.372;2023-10-13T09:43:12;100264.16;;;14.79;100.00
61786;BME280;47692;53.714;11.372;2023-10-13T09:45:41;100259.69;;;14.81;100.00
61786;BME280;47692;53.714;11.372;2023-10-13T09:48:32;100244.84;;;14.80;100.00
61786;BME280;47692;53.714;11.372;2023-10-13T09:51:03;100256.28;;;14.79;100.00
61786;BME280;47692;53.714;11.372;2023-10-13T09:53:32;100258.78;;;14.82;100.00
61786;BME280;47692;53.714;11.372;2023-10-13T09:56:15;100236.06;;;14.81;100.00
61786;BME280;47692;53.714;11.372;2023-10-13T09:59:14;100242.16;;;14.82;100.00
61786;BME280;47692;53.714;11.372;2023-10-13T10:01:43;100243.00;;;14.82;100.00
61786;BME280;47692;53.714;11.372;2023-10-13T10:04:16;100255.06;;;14.86;100.00
61786;BME280;47692;53.714;11.372;2023-10-13T10:06:57;100262.03;;;14.88;100.00
61786;BME280;47692;53.714;11.372;2023-10-13T10:09:27;100249.53;;;14.93;100.00
61786;BME280;47692;53.714;11.372;2023-10-13T10:15:34;100226.06;;;15.07;100.00
61786;BME280;47692;53.714;11.372;2023-10-13T10:18:01;100231.94;;;15.12;100.00
61786;BME280;47692;53.714;11.372;2023-10-13T10:20:31;100216.78;;;15.17;100.00
61786;BME280;47692;53.714;11.372;2023-10-13T10:23:26;100209.50;;;15.23;100.00
61786;BME280;47692;53.714;11.372;2023-10-13T10:25:54;100192.66;;;15.27;100.00
61786;BME280;47692;53.714;11.372;2023-10-13T10:28:40;100201.91;;;15.34;100.00
61786;BME280;47692;53.714;11.372;2023-10-13T10:31:07;100201.59;;;15.40;100.00
61786;BME280;47692;53.714;11.372;2023-10-13T10:33:38;100198.50;;;15.49;100.00
61786;BME280;47692;53.714;11.372;2023-10-13T10:36:04;100202.69;;;15.54;100.00
61786;BME280;47692;53.714;11.372;2023-10-13T10:38:30;100200.66;;;15.59;100.00
61786;BME280;47692;53.714;11.372;2023-10-13T10:41:01;100191.69;;;15.63;100.00
61786;BME280;47692;53.714;11.372;2023-10-13T10:43:37;100186.25;;;15.66;100.00
61786;BME280;47692;53.714;11.372;2023-10-13T10:46:15;100185.09;;;15.72;100.00
61786;BME280;47692;53.714;11.372;2023-10-13T10:48:44;100174.47;;;15.73;100.00
61786;BME280;47692;53.714;11.372;2023-10-13T10:51:12;100173.22;;;15.80;100.00
61786;BME280;47692;53.714;11.372;2023-10-13T10:53:47;100171.63;;;15.78;100.00
61786;BME280;47692;53.714;11.372;2023-10-13T10:56:15;100167.97;;;15.80;100.00
61786;BME280;47692;53.714;11.372;2023-10-13T10:58:55;100148.66;;;15.80;100.00
61786;BME280;47692;53.714;11.372;2023-10-13T11:01:24;100140.56;;;15.85;100.00
61786;BME280;47692;53.714;11.372;2023-10-13T11:03:58;100142.03;;;15.90;100.00
61786;BME280;47692;53.714;11.372;2023-10-13T11:06:52;100144.41;;;15.95;100.00
61786;BME280;47692;53.714;11.372;2023-10-13T11:09:29;100135.75;;;15.93;100.00
61786;BME280;47692;53.714;11.372;2023-10-13T11:12:14;100124.09;;;15.97;100.00
61786;BME280;47692;53.714;11.372;2023-10-13T11:14:43;100129.81;;;16.05;100.00
61786;BME280;47692;53.714;11.372;2023-10-13T11:17:21;100128.47;;;16.14;100.00
61786;BME280;47692;53.714;11.372;2023-10-13T11:19:51;100115.19;;;16.15;100.00
61786;BME280;47692;53.714;11.372;2023-10-13T11:22:18;100129.72;;;16.23;100.00
61786;BME280;47692;53.714;11.372;2023-10-13T11:25:06;100113.00;;;16.24;100.00
61786;BME280;47692;53.714;11.372;2023-10-13T11:27:35;100104.91;;;16.27;100.00
61786;BME280;47692;53.714;11.372;2023-10-13T11:30:17;100096.06;;;16.28;100.00
61786;BME280;47692;53.714;11.372;2023-10-13T11:33:04;100078.13;;;16.35;100.00
61786;BME280;47692;53.714;11.372;2023-10-13T11:35:37;100075.22;;;16.39;100.00
61786;BME280;47692;53.714;11.372;2023-10-13T11:38:27;100060.88;;;16.45;100.00
61786;BME280;47692;53.714;11.372;2023-10-13T11:40:57;100062.13;;;16.54;100.00
61786;BME280;47692;53.714;11.372;2023-10-13T11:43:36;100059.13;;;16.60;100.00
61786;BME280;47692;53.714;11.372;2023-10-13T11:46:08;100049.06;;;16.67;100.00
61786;BME280;47692;53.714;11.372;2023-10-13T11:48:34;100035.63;;;16.71;100.00
61786;BME280;47692;53.714;11.372;2023-10-13T11:51:06;100050.16;;;16.78;100.00
61786;BME280;47692;53.714;11.372;2023-10-13T11:53:51;100046.00;;;16.89;100.00
61786;BME280;47692;53.714;11.372;2023-10-13T11:56:20;100047.75;;;17.04;100.00
61786;BME280;47692;53.714;11.372;2023-10-13T11:58:47;100028.56;;;17.02;100.00
61786;BME280;47692;53.714;11.372;2023-10-13T12:01:13;99987.84;;;17.06;100.00
61786;BME280;47692;53.714;11.372;2023-10-13T12:03:39;99987.75;;;17.08;100.00
61786;BME280;47692;53.714;11.372;2023-10-13T12:06:24;99983.81;;;17.15;100.00
61786;BME280;47692;53.714;11.372;2023-10-13T12:11:42;99968.25;;;17.25;100.00
61786;BME280;47692;53.714;11.372;2023-10-13T12:14:10;99974.56;;;17.22;100.00
61786;BME280;47692;53.714;11.372;2023-10-13T12:19:22;99977.28;;;17.35;100.00
61786;BME280;47692;53.714;11.372;2023-10-13T12:21:49;99975.38;;;17.52;100.00
61786;BME280;47692;53.714;11.372;2023-10-13T12:24:14;99964.97;;;17.63;100.00
61786;BME280;47692;53.714;11.372;2023-10-13T12:26:50;99945.00;;;17.59;100.00
61786;BME280;47692;53.714;11.372;2023-10-13T12:29:24;99940.56;;;17.59;100.00
61786;BME280;47692;53.714;11.372;2023-10-13T12:31:56;99960.25;;;17.68;100.00
61786;BME280;47692;53.714;11.372;2023-10-13T12:34:37;99940.03;;;17.82;100.00
61786;BME280;47692;53.714;11.372;2023-10-13T12:37:21;99925.13;;;17.81;100.00
61786;BME280;47692;53.714;11.372;2023-10-13T12:40:09;99938.22;;;17.82;100.00
61786;BME280;47692;53.714;11.372;2023-10-13T12:42:53;99929.75;;;17.77;100.00
61786;BME280;47692;53.714;11.372;2023-10-13T12:45:46;99933.44;;;17.74;100.00
61786;BME280;47692;53.714;11.372;2023-10-13T12:48:31;99934.41;;;17.73;100.00
61786;BME280;47692;53.714;11.372;2023-10-13T12:51:16;99936.81;;;17.76;100.00
61786;BME280;47692;53.714;11.372;2023-10-13T12:53:56;99927.78;;;17.81;100.00
61786;BME280;47692;53.714;11.372;2023-10-13T12:56:30;99912.25;;;17.89;100.00
61786;BME280;47692;53.714;11.372;2023-10-13T12:58:55;99925.09;;;17.95;100.00
61786;BME280;47692;53.714;11.372;2023-10-13T13:01:22;99934.00;;;18.07;100.00
61786;BME280;47692;53.714;11.372;2023-10-13T13:03:48;99946.91;;;18.12;100.00
61786;BME280;47692;53.714;11.372;2023-10-13T13:06:19;99939.69;;;18.14;100.00
61786;BME280;47692;53.714;11.372;2023-10-13T13:08:53;99925.13;;;18.21;100.00
61786;BME280;47692;53.714;11.372;2023-10-13T13:11:19;99917.31;;;18.32;100.00
61786;BME280;47692;53.714;11.372;2023-10-13T13:13:45;99924.13;;;18.36;100.00
61786;BME280;47692;53.714;11.372;2023-10-13T13:16:14;99910.38;;;18.44;100.00